sensor_id;sensor_type;location;lat;lon;timestamp;temperature;humidity
2873;DHT22;1444;49.166;7.312;2023-08-08T00:00:31;14.50;99.90
2873;DHT22;1444;49.166;7.312;2023-08-08T00:02:57;14.40;99.90
2873;DHT22;1444;49.166;7.312;2023-08-08T00:05:24;14.20;99.90
2873;DHT22;1444;49.166;7.312;2023-08-08T00:07:51;13.20;99.90
2873;DHT22;1444;49.166;7.312;2023-08-08T00:10:20;14.30;99.90
2873;DHT22;1444;49.166;7.312;2023-08-08T00:12:47;14.30;99.90
2873;DHT22;1444;49.166;7.312;2023-08-08T00:15:13;14.50;99.90
2873;DHT22;1444;49.166;7.312;2023-08-08T00:17:40;14.50;99.90
2873;DHT22;1444;49.166;7.312;2023-08-08T00:20:08;14.70;99.90
2873;DHT22;1444;49.166;7.312;2023-08-08T00:22:35;14.70;99.90
2873;DHT22;1444;49.166;7.312;2023-08-08T00:25:03;14.70;99.90
2873;DHT22;1444;49.166;7.312;2023-08-08T00:27:31;14.70;99.90
2873;DHT22;1444;49.166;7.312;2023-08-08T00:29:58;14.70;99.90
2873;DHT22;1444;49.166;7.312;2023-08-08T00:32:25;14.60;99.90
2873;DHT22;1444;49.166;7.312;2023-08-08T00:34:51;14.60;99.90
2873;DHT22;1444;49.166;7.312;2023-08-08T00:37:18;14.60;99.90
2873;DHT22;1444;49.166;7.312;2023-08-08T00:39:45;14.70;99.90
2873;DHT22;1444;49.166;7.312;2023-08-08T00:42:12;14.60;99.90
2873;DHT22;1444;49.166;7.312;2023-08-08T00:44:40;14.60;99.90
2873;DHT22;1444;49.166;7.312;2023-08-08T00:47:08;14.50;99.90
2873;DHT22;1444;49.166;7.312;2023-08-08T00:49:35;14.60;99.90
2873;DHT22;1444;49.166;7.312;2023-08-08T00:52:04;14.70;99.90
2873;DHT22;1444;49.166;7.312;2023-08-08T00:54:32;14.70;99.90
2873;DHT22;1444;49.166;7.312;2023-08-08T00:56:59;14.80;99.90
2873;DHT22;1444;49.166;7.312;2023-08-08T00:59:27;14.70;99.90
2873;DHT22;1444;49.166;7.312;2023-08-08T01:01:57;14.60;99.90
2873;DHT22;1444;49.166;7.312;2023-08-08T01:04:26;14.50;99.90
2873;DHT22;1444;49.166;7.312;2023-08-08T01:06:58;14.50;99.90
2873;DHT22;1444;49.166;7.312;2023-08-08T01:09:32;13.00;99.90
2873;DHT22;1444;49.166;7.312;2023-08-08T01:12:00;14.50;99.90
2873;DHT22;1444;49.166;7.312;2023-08-08T01:14:29;14.60;99.90
2873;DHT22;1444;49.166;7.312;2023-08-08T01:16:59;14.50;99.90
2873;DHT22;1444;49.166;7.312;2023-08-08T01:19:28;14.60;99.90
2873;DHT22;1444;49.166;7.312;2023-08-08T01:21:58;14.60;99.90
2873;DHT22;1444;49.166;7.312;2023-08-08T01:24:29;14.60;99.90
2873;DHT22;1444;49.166;7.312;2023-08-08T01:26:59;14.70;99.90
2873;DHT22;1444;49.166;7.312;2023-08-08T01:29:26;14.60;99.90
2873;DHT22;1444;49.166;7.312;2023-08-08T01:31:54;14.70;99.90
2873;DHT22;1444;49.166;7.312;2023-08-08T01:34:21;14.60;99.90
2873;DHT22;1444;49.166;7.312;2023-08-08T01:36:51;14.60;99.90
2873;DHT22;1444;49.166;7.312;2023-08-08T01:39:25;14.60;99.90
2873;DHT22;1444;49.166;7.312;2023-08-08T01:41:54;14.60;99.90
2873;DHT22;1444;49.166;7.312;2023-08-08T01:44:22;14.70;99.90
2873;DHT22;1444;49.166;7.312;2023-08-08T01:46:50;14.80;99.90
2873;DHT22;1444;49.166;7.312;2023-08-08T01:49:17;14.80;99.90
2873;DHT22;1444;49.166;7.312;2023-08-08T01:51:44;14.70;99.90
2873;DHT22;1444;49.166;7.312;2023-08-08T01:54:11;14.70;99.90
2873;DHT22;1444;49.166;7.312;2023-08-08T01:56:38;14.70;99.90
2873;DHT22;1444;49.166;7.312;2023-08-08T01:59:06;14.70;99.90
2873;DHT22;1444;49.166;7.312;2023-08-08T02:01:33;14.60;99.90
2873;DHT22;1444;49.166;7.312;2023-08-08T02:04:00;14.60;99.90
2873;DHT22;1444;49.166;7.312;2023-08-08T02:06:27;14.70;99.90
2873;DHT22;1444;49.166;7.312;2023-08-08T02:08:56;14.80;99.90
2873;DHT22;1444;49.166;7.312;2023-08-08T02:11:23;14.80;99.90
2873;DHT22;1444;49.166;7.312;2023-08-08T02:13:49;14.80;99.90
2873;DHT22;1444;49.166;7.312;2023-08-08T02:16:18;14.70;99.90
2873;DHT22;1444;49.166;7.312;2023-08-08T02:18:44;14.60;99.90
2873;DHT22;1444;49.166;7.312;2023-08-08T02:21:11;14.70;99.90
2873;DHT22;1444;49.166;7.312;2023-08-08T02:23:38;14.80;99.90
2873;DHT22;1444;49.166;7.312;2023-08-08T02:26:05;14.80;99.90
2873;DHT22;1444;49.166;7.312;2023-08-08T02:28:32;14.80;99.90
2873;DHT22;1444;49.166;7.312;2023-08-08T02:30:59;14.90;99.90
2873;DHT22;1444;49.166;7.312;2023-08-08T02:33:27;14.80;99.90
2873;DHT22;1444;49.166;7.312;2023-08-08T02:35:54;14.80;99.90
2873;DHT22;1444;49.166;7.312;2023-08-08T02:38:21;14.80;99.90
2873;DHT22;1444;49.166;7.312;2023-08-08T02:40:48;14.80;99.90
2873;DHT22;1444;49.166;7.312;2023-08-08T02:43:15;14.70;99.90
2873;DHT22;1444;49.166;7.312;2023-08-08T02:45:42;14.70;99.90
2873;DHT22;1444;49.166;7.312;2023-08-08T02:48:09;14.80;99.90
2873;DHT22;1444;49.166;7.312;2023-08-08T02:50:37;14.80;99.90
2873;DHT22;1444;49.166;7.312;2023-08-08T02:53:04;14.70;99.90
2873;DHT22;1444;49.166;7.312;2023-08-08T02:55:31;14.90;99.90
2873;DHT22;1444;49.166;7.312;2023-08-08T02:57:58;14.90;99.90
2873;DHT22;1444;49.166;7.312;2023-08-08T03:00:25;14.90;99.90
2873;DHT22;1444;49.166;7.312;2023-08-08T03:02:52;14.90;99.90
2873;DHT22;1444;49.166;7.312;2023-08-08T03:05:19;14.80;99.90
2873;DHT22;1444;49.166;7.312;2023-08-08T03:07:47;14.60;99.90
2873;DHT22;1444;49.166;7.312;2023-08-08T03:10:14;14.50;99.90
2873;DHT22;1444;49.166;7.312;2023-08-08T03:12:41;14.30;99.90
2873;DHT22;1444;49.166;7.312;2023-08-08T03:15:08;14.20;99.90
2873;DHT22;1444;49.166;7.312;2023-08-08T03:17:36;14.00;99.90
2873;DHT22;1444;49.166;7.312;2023-08-08T03:20:03;13.90;99.90
2873;DHT22;1444;49.166;7.312;2023-08-08T03:22:32;13.90;99.90
2873;DHT22;1444;49.166;7.312;2023-08-08T03:25:00;13.70;99.90
2873;DHT22;1444;49.166;7.312;2023-08-08T03:27:28;13.60;99.90
2873;DHT22;1444;49.166;7.312;2023-08-08T03:29:55;13.60;99.90
2873;DHT22;1444;49.166;7.312;2023-08-08T03:32:22;13.60;99.90
2873;DHT22;1444;49.166;7.312;2023-08-08T03:34:49;13.60;99.90
2873;DHT22;1444;49.166;7.312;2023-08-08T03:37:16;13.60;99.90
2873;DHT22;1444;49.166;7.312;2023-08-08T03:39:42;13.70;99.90
2873;DHT22;1444;49.166;7.312;2023-08-08T03:42:11;13.70;99.90
2873;DHT22;1444;49.166;7.312;2023-08-08T03:44:37;13.60;99.90
2873;DHT22;1444;49.166;7.312;2023-08-08T03:47:04;13.50;99.90
2873;DHT22;1444;49.166;7.312;2023-08-08T03:49:32;13.40;99.90
2873;DHT22;1444;49.166;7.312;2023-08-08T03:51:59;13.30;99.90
2873;DHT22;1444;49.166;7.312;2023-08-08T03:54:26;13.40;99.90
2873;DHT22;1444;49.166;7.312;2023-08-08T03:56:52;13.30;99.90
2873;DHT22;1444;49.166;7.312;2023-08-08T03:59:21;13.20;99.90
2873;DHT22;1444;49.166;7.312;2023-08-08T04:01:47;13.10;99.90
2873;DHT22;1444;49.166;7.312;2023-08-08T04:04:14;13.10;99.90
2873;DHT22;1444;49.166;7.312;2023-08-08T04:06:41;13.00;99.90
2873;DHT22;1444;49.166;7.312;2023-08-08T04:09:08;13.10;99.90
2873;DHT22;1444;49.166;7.312;2023-08-08T04:11:35;13.00;99.90
2873;DHT22;1444;49.166;7.312;2023-08-08T04:14:02;12.90;99.90
2873;DHT22;1444;49.166;7.312;2023-08-08T04:16:31;12.90;99.90
2873;DHT22;1444;49.166;7.312;2023-08-08T04:18:58;12.90;99.90
2873;DHT22;1444;49.166;7.312;2023-08-08T04:21:25;12.80;99.90
2873;DHT22;1444;49.166;7.312;2023-08-08T04:23:54;12.70;99.90
2873;DHT22;1444;49.166;7.312;2023-08-08T04:26:21;12.70;99.90
2873;DHT22;1444;49.166;7.312;2023-08-08T04:28:48;12.60;99.90
2873;DHT22;1444;49.166;7.312;2023-08-08T04:31:14;12.60;99.90
2873;DHT22;1444;49.166;7.312;2023-08-08T04:33:43;12.50;99.90
2873;DHT22;1444;49.166;7.312;2023-08-08T04:36:10;12.50;99.90
2873;DHT22;1444;49.166;7.312;2023-08-08T04:38:37;12.50;99.90
2873;DHT22;1444;49.166;7.312;2023-08-08T04:41:04;12.50;99.90
2873;DHT22;1444;49.166;7.312;2023-08-08T04:43:30;12.50;99.90
2873;DHT22;1444;49.166;7.312;2023-08-08T04:45:57;12.40;99.90
2873;DHT22;1444;49.166;7.312;2023-08-08T04:48:24;12.40;99.90
2873;DHT22;1444;49.166;7.312;2023-08-08T04:50:52;12.40;99.90
2873;DHT22;1444;49.166;7.312;2023-08-08T04:53:19;12.40;99.90
2873;DHT22;1444;49.166;7.312;2023-08-08T04:55:46;12.40;99.90
2873;DHT22;1444;49.166;7.312;2023-08-08T04:58:13;12.30;99.90
2873;DHT22;1444;49.166;7.312;2023-08-08T05:00:40;12.20;99.90
2873;DHT22;1444;49.166;7.312;2023-08-08T05:03:07;12.20;99.90
2873;DHT22;1444;49.166;7.312;2023-08-08T05:05:33;12.20;99.90
2873;DHT22;1444;49.166;7.312;2023-08-08T05:08:02;12.20;99.90
2873;DHT22;1444;49.166;7.312;2023-08-08T05:10:29;12.30;99.90
2873;DHT22;1444;49.166;7.312;2023-08-08T05:12:56;12.30;99.90
2873;DHT22;1444;49.166;7.312;2023-08-08T05:15:23;12.40;99.90
2873;DHT22;1444;49.166;7.312;2023-08-08T05:17:50;12.50;99.90
2873;DHT22;1444;49.166;7.312;2023-08-08T05:20:19;12.50;99.90
2873;DHT22;1444;49.166;7.312;2023-08-08T05:22:46;12.60;99.90
2873;DHT22;1444;49.166;7.312;2023-08-08T05:25:15;12.60;99.90
2873;DHT22;1444;49.166;7.312;2023-08-08T05:27:42;12.80;99.90
2873;DHT22;1444;49.166;7.312;2023-08-08T05:30:09;12.90;99.90
2873;DHT22;1444;49.166;7.312;2023-08-08T05:32:36;13.00;99.90
2873;DHT22;1444;49.166;7.312;2023-08-08T05:35:04;13.20;99.90
2873;DHT22;1444;49.166;7.312;2023-08-08T05:37:31;13.30;99.90
2873;DHT22;1444;49.166;7.312;2023-08-08T05:39:58;13.40;99.90
2873;DHT22;1444;49.166;7.312;2023-08-08T05:42:27;13.40;99.90
2873;DHT22;1444;49.166;7.312;2023-08-08T05:44:53;13.50;99.90
2873;DHT22;1444;49.166;7.312;2023-08-08T05:47:20;13.50;99.90
2873;DHT22;1444;49.166;7.312;2023-08-08T05:49:47;13.70;99.90
2873;DHT22;1444;49.166;7.312;2023-08-08T05:52:14;13.70;99.90
2873;DHT22;1444;49.166;7.312;2023-08-08T05:54:41;13.80;99.90
2873;DHT22;1444;49.166;7.312;2023-08-08T05:57:08;13.90;99.90
2873;DHT22;1444;49.166;7.312;2023-08-08T05:59:36;14.10;99.90
2873;DHT22;1444;49.166;7.312;2023-08-08T06:02:03;14.20;99.90
2873;DHT22;1444;49.166;7.312;2023-08-08T06:04:30;14.20;99.90
2873;DHT22;1444;49.166;7.312;2023-08-08T06:06:57;14.30;99.90
2873;DHT22;1444;49.166;7.312;2023-08-08T06:09:24;14.60;99.90
2873;DHT22;1444;49.166;7.312;2023-08-08T06:11:51;14.60;99.90
2873;DHT22;1444;49.166;7.312;2023-08-08T06:14:18;14.80;99.90
2873;DHT22;1444;49.166;7.312;2023-08-08T06:16:46;14.90;99.90
2873;DHT22;1444;49.166;7.312;2023-08-08T06:19:13;17.50;99.90
2873;DHT22;1444;49.166;7.312;2023-08-08T06:24:08;15.20;99.90
2873;DHT22;1444;49.166;7.312;2023-08-08T06:26:35;15.40;99.90
2873;DHT22;1444;49.166;7.312;2023-08-08T06:29:02;15.50;99.90
2873;DHT22;1444;49.166;7.312;2023-08-08T06:31:29;15.60;99.90
2873;DHT22;1444;49.166;7.312;2023-08-08T06:33:57;15.60;99.90
2873;DHT22;1444;49.166;7.312;2023-08-08T06:36:24;15.80;99.90
2873;DHT22;1444;49.166;7.312;2023-08-08T06:38:51;15.70;99.90
2873;DHT22;1444;49.166;7.312;2023-08-08T06:41:18;15.80;99.90
2873;DHT22;1444;49.166;7.312;2023-08-08T06:43:45;16.00;99.90
2873;DHT22;1444;49.166;7.312;2023-08-08T06:46:12;16.00;99.90
2873;DHT22;1444;49.166;7.312;2023-08-08T06:48:38;16.00;99.90
2873;DHT22;1444;49.166;7.312;2023-08-08T06:51:07;16.10;99.90
2873;DHT22;1444;49.166;7.312;2023-08-08T06:53:34;16.10;99.90
2873;DHT22;1444;49.166;7.312;2023-08-08T06:56:01;16.20;99.90
2873;DHT22;1444;49.166;7.312;2023-08-08T06:58:27;16.40;99.90
2873;DHT22;1444;49.166;7.312;2023-08-08T07:00:54;16.50;99.90
2873;DHT22;1444;49.166;7.312;2023-08-08T07:03:21;16.70;99.90
2873;DHT22;1444;49.166;7.312;2023-08-08T07:05:48;16.80;99.90
2873;DHT22;1444;49.166;7.312;2023-08-08T07:08:19;16.90;99.90
2873;DHT22;1444;49.166;7.312;2023-08-08T07:10:46;17.00;99.90
2873;DHT22;1444;49.166;7.312;2023-08-08T07:13:13;17.20;99.90
2873;DHT22;1444;49.166;7.312;2023-08-08T07:15:41;17.20;99.90
2873;DHT22;1444;49.166;7.312;2023-08-08T07:18:08;17.30;99.90
2873;DHT22;1444;49.166;7.312;2023-08-08T07:20:34;17.50;99.90
2873;DHT22;1444;49.166;7.312;2023-08-08T07:23:01;17.60;99.90
2873;DHT22;1444;49.166;7.312;2023-08-08T07:25:33;17.70;99.90
2873;DHT22;1444;49.166;7.312;2023-08-08T07:28:00;17.80;99.90
2873;DHT22;1444;49.166;7.312;2023-08-08T07:30:28;17.90;99.90
2873;DHT22;1444;49.166;7.312;2023-08-08T07:32:54;18.00;99.90
2873;DHT22;1444;49.166;7.312;2023-08-08T07:35:21;18.10;99.90
2873;DHT22;1444;49.166;7.312;2023-08-08T07:37:48;18.20;99.90
2873;DHT22;1444;49.166;7.312;2023-08-08T07:40:16;18.20;99.90
2873;DHT22;1444;49.166;7.312;2023-08-08T07:42:44;18.30;99.90
2873;DHT22;1444;49.166;7.312;2023-08-08T07:45:11;18.30;99.90
2873;DHT22;1444;49.166;7.312;2023-08-08T07:47:38;18.50;99.90
2873;DHT22;1444;49.166;7.312;2023-08-08T07:50:06;18.30;99.90
2873;DHT22;1444;49.166;7.312;2023-08-08T07:52:34;18.40;99.90
2873;DHT22;1444;49.166;7.312;2023-08-08T07:55:00;18.40;99.90
2873;DHT22;1444;49.166;7.312;2023-08-08T07:57:27;18.50;99.90
2873;DHT22;1444;49.166;7.312;2023-08-08T07:59:57;18.50;99.90
2873;DHT22;1444;49.166;7.312;2023-08-08T08:02:23;18.70;99.90
2873;DHT22;1444;49.166;7.312;2023-08-08T08:04:50;18.80;99.90
2873;DHT22;1444;49.166;7.312;2023-08-08T08:07:17;18.80;99.90
2873;DHT22;1444;49.166;7.312;2023-08-08T08:09:44;18.90;99.90
2873;DHT22;1444;49.166;7.312;2023-08-08T08:12:11;19.00;99.90
2873;DHT22;1444;49.166;7.312;2023-08-08T08:14:39;19.00;99.90
2873;DHT22;1444;49.166;7.312;2023-08-08T08:17:07;19.10;99.90
2873;DHT22;1444;49.166;7.312;2023-08-08T08:19:34;19.10;99.90
2873;DHT22;1444;49.166;7.312;2023-08-08T08:22:01;19.30;99.90
2873;DHT22;1444;49.166;7.312;2023-08-08T08:24:29;19.20;99.40
2873;DHT22;1444;49.166;7.312;2023-08-08T08:26:56;19.30;99.20
2873;DHT22;1444;49.166;7.312;2023-08-08T08:29:23;19.20;99.50
2873;DHT22;1444;49.166;7.312;2023-08-08T08:31:50;19.30;99.90
2873;DHT22;1444;49.166;7.312;2023-08-08T08:34:18;19.40;99.00
2873;DHT22;1444;49.166;7.312;2023-08-08T08:36:45;19.60;98.20
2873;DHT22;1444;49.166;7.312;2023-08-08T08:39:12;19.30;97.50
2873;DHT22;1444;49.166;7.312;2023-08-08T08:41:39;19.50;98.40
2873;DHT22;1444;49.166;7.312;2023-08-08T08:44:06;19.40;97.80
2873;DHT22;1444;49.166;7.312;2023-08-08T08:46:35;19.60;97.80
2873;DHT22;1444;49.166;7.312;2023-08-08T08:49:05;19.90;98.40
2873;DHT22;1444;49.166;7.312;2023-08-08T08:51:35;20.00;97.50
2873;DHT22;1444;49.166;7.312;2023-08-08T08:54:03;19.30;96.90
2873;DHT22;1444;49.166;7.312;2023-08-08T08:56:30;19.90;96.30
2873;DHT22;1444;49.166;7.312;2023-08-08T08:58:59;19.90;97.50
2873;DHT22;1444;49.166;7.312;2023-08-08T09:01:26;19.60;97.30
2873;DHT22;1444;49.166;7.312;2023-08-08T09:03:53;19.90;98.30
2873;DHT22;1444;49.166;7.312;2023-08-08T09:06:23;20.10;97.60
2873;DHT22;1444;49.166;7.312;2023-08-08T09:08:51;20.20;96.80
2873;DHT22;1444;49.166;7.312;2023-08-08T09:11:18;20.30;96.20
2873;DHT22;1444;49.166;7.312;2023-08-08T09:13:46;20.30;95.70
2873;DHT22;1444;49.166;7.312;2023-08-08T09:16:13;20.40;96.30
2873;DHT22;1444;49.166;7.312;2023-08-08T09:18:40;20.30;96.40
2873;DHT22;1444;49.166;7.312;2023-08-08T09:21:08;20.30;96.30
2873;DHT22;1444;49.166;7.312;2023-08-08T09:23:36;20.00;95.80
2873;DHT22;1444;49.166;7.312;2023-08-08T09:26:05;19.90;95.00
2873;DHT22;1444;49.166;7.312;2023-08-08T09:28:32;20.10;95.30
2873;DHT22;1444;49.166;7.312;2023-08-08T09:30:59;20.20;97.40
2873;DHT22;1444;49.166;7.312;2023-08-08T09:33:28;20.50;94.60
2873;DHT22;1444;49.166;7.312;2023-08-08T09:35:55;20.40;94.40
2873;DHT22;1444;49.166;7.312;2023-08-08T09:38:22;20.60;94.90
2873;DHT22;1444;49.166;7.312;2023-08-08T09:40:50;20.90;95.00
2873;DHT22;1444;49.166;7.312;2023-08-08T09:43:18;21.10;94.50
2873;DHT22;1444;49.166;7.312;2023-08-08T09:45:47;21.30;94.20
2873;DHT22;1444;49.166;7.312;2023-08-08T09:48:15;21.50;93.80
2873;DHT22;1444;49.166;7.312;2023-08-08T09:50:43;21.40;93.50
2873;DHT22;1444;49.166;7.312;2023-08-08T09:53:11;21.60;93.70
2873;DHT22;1444;49.166;7.312;2023-08-08T09:55:38;21.50;92.70
2873;DHT22;1444;49.166;7.312;2023-08-08T09:58:06;21.20;94.00
2873;DHT22;1444;49.166;7.312;2023-08-08T10:00:35;21.30;92.60
2873;DHT22;1444;49.166;7.312;2023-08-08T10:03:03;21.10;93.60
2873;DHT22;1444;49.166;7.312;2023-08-08T10:05:30;21.10;93.50
2873;DHT22;1444;49.166;7.312;2023-08-08T10:07:57;21.20;91.70
2873;DHT22;1444;49.166;7.312;2023-08-08T10:10:24;21.20;91.90
2873;DHT22;1444;49.166;7.312;2023-08-08T10:12:52;21.30;92.20
2873;DHT22;1444;49.166;7.312;2023-08-08T10:15:19;21.60;93.60
2873;DHT22;1444;49.166;7.312;2023-08-08T10:17:56;21.80;92.60
2873;DHT22;1444;49.166;7.312;2023-08-08T10:20:24;21.90;91.20
2873;DHT22;1444;49.166;7.312;2023-08-08T10:22:53;22.00;92.00
2873;DHT22;1444;49.166;7.312;2023-08-08T10:25:23;21.90;92.50
2873;DHT22;1444;49.166;7.312;2023-08-08T10:28:00;21.70;91.40
2873;DHT22;1444;49.166;7.312;2023-08-08T10:30:29;21.60;92.10
2873;DHT22;1444;49.166;7.312;2023-08-08T10:32:58;21.80;91.40
2873;DHT22;1444;49.166;7.312;2023-08-08T10:35:36;22.00;91.90
2873;DHT22;1444;49.166;7.312;2023-08-08T10:38:08;22.00;93.10
2873;DHT22;1444;49.166;7.312;2023-08-08T10:40:35;22.00;91.00
2873;DHT22;1444;49.166;7.312;2023-08-08T10:43:11;21.80;91.70
2873;DHT22;1444;49.166;7.312;2023-08-08T10:45:41;22.00;90.90
2873;DHT22;1444;49.166;7.312;2023-08-08T10:48:11;22.10;90.90
2873;DHT22;1444;49.166;7.312;2023-08-08T10:50:39;22.10;90.20
2873;DHT22;1444;49.166;7.312;2023-08-08T10:53:09;22.00;90.70
2873;DHT22;1444;49.166;7.312;2023-08-08T10:55:37;21.70;90.50
2873;DHT22;1444;49.166;7.312;2023-08-08T10:58:06;21.70;91.50
2873;DHT22;1444;49.166;7.312;2023-08-08T11:00:34;21.70;90.60
2873;DHT22;1444;49.166;7.312;2023-08-08T11:03:02;22.40;90.30
2873;DHT22;1444;49.166;7.312;2023-08-08T11:05:32;21.90;91.00
2873;DHT22;1444;49.166;7.312;2023-08-08T11:07:59;21.80;91.60
2873;DHT22;1444;49.166;7.312;2023-08-08T11:10:27;21.80;91.30
2873;DHT22;1444;49.166;7.312;2023-08-08T11:12:57;21.90;91.00
2873;DHT22;1444;49.166;7.312;2023-08-08T11:15:25;22.00;91.30
2873;DHT22;1444;49.166;7.312;2023-08-08T11:17:53;22.40;93.50
2873;DHT22;1444;49.166;7.312;2023-08-08T11:20:20;22.70;90.90
2873;DHT22;1444;49.166;7.312;2023-08-08T11:22:53;22.80;88.70
2873;DHT22;1444;49.166;7.312;2023-08-08T11:25:20;22.70;88.60
2873;DHT22;1444;49.166;7.312;2023-08-08T11:27:51;22.90;90.20
2873;DHT22;1444;49.166;7.312;2023-08-08T11:30:18;23.00;90.30
2873;DHT22;1444;49.166;7.312;2023-08-08T11:32:46;23.10;90.40
2873;DHT22;1444;49.166;7.312;2023-08-08T11:35:15;22.90;88.90
2873;DHT22;1444;49.166;7.312;2023-08-08T11:37:43;22.90;86.50
2873;DHT22;1444;49.166;7.312;2023-08-08T11:40:12;23.20;90.20
2873;DHT22;1444;49.166;7.312;2023-08-08T11:42:39;23.30;87.50
2873;DHT22;1444;49.166;7.312;2023-08-08T11:45:09;23.30;86.60
2873;DHT22;1444;49.166;7.312;2023-08-08T11:47:37;23.20;89.30
2873;DHT22;1444;49.166;7.312;2023-08-08T11:50:06;23.20;88.30
2873;DHT22;1444;49.166;7.312;2023-08-08T11:52:34;23.20;90.40
2873;DHT22;1444;49.166;7.312;2023-08-08T11:55:02;23.20;88.00
2873;DHT22;1444;49.166;7.312;2023-08-08T11:57:33;23.20;88.30
2873;DHT22;1444;49.166;7.312;2023-08-08T12:00:03;23.20;87.40
2873;DHT22;1444;49.166;7.312;2023-08-08T12:02:32;23.40;85.40
2873;DHT22;1444;49.166;7.312;2023-08-08T12:05:04;23.50;88.70
2873;DHT22;1444;49.166;7.312;2023-08-08T12:07:32;23.50;86.80
2873;DHT22;1444;49.166;7.312;2023-08-08T12:09:59;23.30;84.80
2873;DHT22;1444;49.166;7.312;2023-08-08T12:12:27;23.10;86.70
2873;DHT22;1444;49.166;7.312;2023-08-08T12:14:55;23.10;89.30
2873;DHT22;1444;49.166;7.312;2023-08-08T12:17:22;22.90;85.80
2873;DHT22;1444;49.166;7.312;2023-08-08T12:19:49;22.90;87.10
2873;DHT22;1444;49.166;7.312;2023-08-08T12:22:16;22.90;87.90
2873;DHT22;1444;49.166;7.312;2023-08-08T12:24:43;23.00;87.20
2873;DHT22;1444;49.166;7.312;2023-08-08T12:27:09;23.10;85.70
2873;DHT22;1444;49.166;7.312;2023-08-08T12:29:36;23.30;88.70
2873;DHT22;1444;49.166;7.312;2023-08-08T12:32:05;23.30;87.50
2873;DHT22;1444;49.166;7.312;2023-08-08T12:34:34;23.70;89.00
2873;DHT22;1444;49.166;7.312;2023-08-08T12:37:01;23.90;89.30
2873;DHT22;1444;49.166;7.312;2023-08-08T12:39:28;23.90;88.60
2873;DHT22;1444;49.166;7.312;2023-08-08T12:41:55;23.80;85.00
2873;DHT22;1444;49.166;7.312;2023-08-08T12:44:24;23.70;87.10
2873;DHT22;1444;49.166;7.312;2023-08-08T12:46:51;23.70;86.50
2873;DHT22;1444;49.166;7.312;2023-08-08T12:49:19;23.70;86.20
2873;DHT22;1444;49.166;7.312;2023-08-08T12:51:46;23.80;86.40
2873;DHT22;1444;49.166;7.312;2023-08-08T12:54:13;23.70;86.80
2873;DHT22;1444;49.166;7.312;2023-08-08T12:56:40;23.60;86.80
2873;DHT22;1444;49.166;7.312;2023-08-08T12:59:08;23.60;87.60
2873;DHT22;1444;49.166;7.312;2023-08-08T13:01:35;23.40;87.10
2873;DHT22;1444;49.166;7.312;2023-08-08T13:04:02;23.60;87.30
2873;DHT22;1444;49.166;7.312;2023-08-08T13:06:31;23.50;87.30
2873;DHT22;1444;49.166;7.312;2023-08-08T13:08:58;23.40;87.20
2873;DHT22;1444;49.166;7.312;2023-08-08T13:11:26;23.10;88.10
2873;DHT22;1444;49.166;7.312;2023-08-08T13:13:53;23.00;89.60
2873;DHT22;1444;49.166;7.312;2023-08-08T13:16:20;22.80;87.20
2873;DHT22;1444;49.166;7.312;2023-08-08T13:18:47;22.80;88.00
2873;DHT22;1444;49.166;7.312;2023-08-08T13:21:15;22.80;88.40
2873;DHT22;1444;49.166;7.312;2023-08-08T13:23:43;22.70;88.20
2873;DHT22;1444;49.166;7.312;2023-08-08T13:26:11;22.60;88.50
2873;DHT22;1444;49.166;7.312;2023-08-08T13:28:38;22.50;88.50
2873;DHT22;1444;49.166;7.312;2023-08-08T13:31:05;22.50;89.30
2873;DHT22;1444;49.166;7.312;2023-08-08T13:33:33;22.40;88.10
2873;DHT22;1444;49.166;7.312;2023-08-08T13:36:01;22.40;87.80
2873;DHT22;1444;49.166;7.312;2023-08-08T13:38:27;22.30;87.60
2873;DHT22;1444;49.166;7.312;2023-08-08T13:40:56;22.20;88.80
2873;DHT22;1444;49.166;7.312;2023-08-08T13:43:22;22.20;90.30
2873;DHT22;1444;49.166;7.312;2023-08-08T13:45:50;22.20;88.90
2873;DHT22;1444;49.166;7.312;2023-08-08T13:48:17;22.10;90.00
2873;DHT22;1444;49.166;7.312;2023-08-08T13:50:44;22.00;89.10
2873;DHT22;1444;49.166;7.312;2023-08-08T13:53:11;21.90;88.90
2873;DHT22;1444;49.166;7.312;2023-08-08T13:55:38;21.90;89.70
2873;DHT22;1444;49.166;7.312;2023-08-08T13:58:08;21.90;90.30
2873;DHT22;1444;49.166;7.312;2023-08-08T14:00:35;22.00;90.60
2873;DHT22;1444;49.166;7.312;2023-08-08T14:05:29;22.00;90.30
2873;DHT22;1444;49.166;7.312;2023-08-08T14:07:57;22.00;90.70
2873;DHT22;1444;49.166;7.312;2023-08-08T14:10:23;22.00;91.20
2873;DHT22;1444;49.166;7.312;2023-08-08T14:12:50;22.10;90.70
2873;DHT22;1444;49.166;7.312;2023-08-08T14:15:18;22.10;90.80
2873;DHT22;1444;49.166;7.312;2023-08-08T14:17:45;22.10;91.10
2873;DHT22;1444;49.166;7.312;2023-08-08T14:20:12;22.30;91.30
2873;DHT22;1444;49.166;7.312;2023-08-08T14:22:39;22.40;92.10
2873;DHT22;1444;49.166;7.312;2023-08-08T14:25:07;22.60;90.80
2873;DHT22;1444;49.166;7.312;2023-08-08T14:27:34;22.50;91.20
2873;DHT22;1444;49.166;7.312;2023-08-08T14:30:02;22.60;90.40
2873;DHT22;1444;49.166;7.312;2023-08-08T14:32:30;22.80;91.30
2873;DHT22;1444;49.166;7.312;2023-08-08T14:34:58;22.80;90.60
2873;DHT22;1444;49.166;7.312;2023-08-08T14:37:25;22.80;90.10
2873;DHT22;1444;49.166;7.312;2023-08-08T14:39:53;22.80;90.30
2873;DHT22;1444;49.166;7.312;2023-08-08T14:42:20;22.90;90.70
2873;DHT22;1444;49.166;7.312;2023-08-08T14:44:47;22.90;90.90
2873;DHT22;1444;49.166;7.312;2023-08-08T14:47:14;23.00;91.20
2873;DHT22;1444;49.166;7.312;2023-08-08T14:49:42;22.90;90.10
2873;DHT22;1444;49.166;7.312;2023-08-08T14:52:09;22.90;90.50
2873;DHT22;1444;49.166;7.312;2023-08-08T14:54:36;23.00;91.80
2873;DHT22;1444;49.166;7.312;2023-08-08T14:57:04;23.00;90.20
2873;DHT22;1444;49.166;7.312;2023-08-08T14:59:31;22.90;90.00
2873;DHT22;1444;49.166;7.312;2023-08-08T15:01:57;22.90;90.30
2873;DHT22;1444;49.166;7.312;2023-08-08T15:04:24;22.80;90.20
2873;DHT22;1444;49.166;7.312;2023-08-08T15:06:53;22.80;90.90
2873;DHT22;1444;49.166;7.312;2023-08-08T15:09:20;22.70;90.70
2873;DHT22;1444;49.166;7.312;2023-08-08T15:11:47;22.60;90.80
2873;DHT22;1444;49.166;7.312;2023-08-08T15:14:13;22.70;91.00
2873;DHT22;1444;49.166;7.312;2023-08-08T15:16:41;22.60;91.20
2873;DHT22;1444;49.166;7.312;2023-08-08T15:19:08;22.80;91.60
2873;DHT22;1444;49.166;7.312;2023-08-08T15:21:35;22.90;91.60
2873;DHT22;1444;49.166;7.312;2023-08-08T15:24:05;22.90;91.50
2873;DHT22;1444;49.166;7.312;2023-08-08T15:26:32;23.00;91.90
2873;DHT22;1444;49.166;7.312;2023-08-08T15:28:59;23.00;92.20
2873;DHT22;1444;49.166;7.312;2023-08-08T15:31:26;22.80;91.00
2873;DHT22;1444;49.166;7.312;2023-08-08T15:33:53;22.70;91.50
2873;DHT22;1444;49.166;7.312;2023-08-08T15:36:20;22.80;92.00
2873;DHT22;1444;49.166;7.312;2023-08-08T15:38:47;22.70;92.20
2873;DHT22;1444;49.166;7.312;2023-08-08T15:41:16;22.70;92.10
2873;DHT22;1444;49.166;7.312;2023-08-08T15:43:43;22.70;91.60
2873;DHT22;1444;49.166;7.312;2023-08-08T15:46:09;22.70;92.10
2873;DHT22;1444;49.166;7.312;2023-08-08T15:48:36;22.70;92.20
2873;DHT22;1444;49.166;7.312;2023-08-08T15:51:03;22.70;91.90
2873;DHT22;1444;49.166;7.312;2023-08-08T15:53:30;22.80;91.80
2873;DHT22;1444;49.166;7.312;2023-08-08T15:55:59;22.70;92.60
2873;DHT22;1444;49.166;7.312;2023-08-08T15:58:28;22.70;92.60
2873;DHT22;1444;49.166;7.312;2023-08-08T16:00:55;22.70;92.40
2873;DHT22;1444;49.166;7.312;2023-08-08T16:03:22;22.70;92.70
2873;DHT22;1444;49.166;7.312;2023-08-08T16:05:49;22.60;93.00
2873;DHT22;1444;49.166;7.312;2023-08-08T16:08:16;22.50;91.70